createdAt,value
2019-02-26T00:01:16.372Z,53.50
2019-02-26T00:05:23.450Z,53.27
2019-02-26T00:09:32.353Z,54.10
2019-02-26T00:13:38.915Z,54.27
2019-02-26T00:17:48.353Z,54.26
2019-02-26T00:21:54.687Z,55.12
2019-02-26T00:26:01.803Z,54.37
2019-02-26T00:30:11.819Z,55.14
2019-02-26T00:34:19.573Z,55.44
2019-02-26T00:38:26.432Z,55.41
2019-02-26T00:42:34.245Z,55.56
2019-02-26T00:46:41.794Z,55.77
2019-02-26T00:50:52.663Z,55.70
2019-02-26T00:55:02.277Z,54.83
2019-02-26T00:59:08.775Z,55.82
2019-02-26T01:03:15.604Z,54.86
2019-02-26T01:07:23.918Z,56.09
2019-02-26T01:11:30.946Z,56.30
2019-02-26T01:15:37.753Z,55.78
2019-02-26T01:19:44.557Z,56.09
2019-02-26T01:23:51.418Z,56.27
2019-02-26T01:28:00.282Z,56.25
2019-02-26T01:32:08.930Z,56.33
2019-02-26T01:36:16.304Z,56.75
2019-02-26T01:40:25.764Z,57.83
2019-02-26T01:44:34.963Z,57.58
2019-02-26T01:48:41.323Z,58.84
2019-02-26T01:52:50.004Z,58.82
2019-02-26T01:56:56.812Z,59.68
2019-02-26T02:01:03.692Z,59.50
2019-02-26T02:05:10.566Z,59.83
2019-02-26T02:09:18.676Z,60.69
2019-02-26T02:13:28.415Z,60.64
2019-02-26T02:17:35.624Z,61.09
2019-02-26T02:21:43.123Z,61.05
2019-02-26T02:25:50.018Z,62.24
2019-02-26T02:29:57.817Z,62.84
2019-02-26T02:34:04.721Z,63.09
2019-02-26T02:38:11.597Z,62.88
2019-02-26T02:42:19.112Z,63.23
2019-02-26T02:46:26.931Z,63.68
2019-02-26T02:50:34.785Z,63.67
2019-02-26T02:54:44.111Z,63.49
2019-02-26T02:58:51.529Z,64.03
2019-02-26T03:02:58.758Z,64.55
2019-02-26T03:07:06.624Z,64.49
2019-02-26T03:11:13.472Z,64.66
2019-02-26T03:15:21.857Z,64.60
2019-02-26T03:19:29.754Z,64.60
2019-02-26T03:23:40.385Z,66.68
2019-02-26T03:27:46.096Z,67.04
2019-02-26T03:31:55.168Z,66.23
2019-02-26T03:36:05.437Z,66.59
2019-02-26T03:40:11.706Z,66.43
2019-02-26T03:44:18.568Z,66.14
2019-02-26T03:48:27.193Z,66.10
2019-02-26T03:52:34.044Z,65.67
2019-02-26T03:56:42.999Z,66.33
2019-02-26T04:00:49.815Z,66.43
2019-02-26T04:04:57.916Z,65.66
2019-02-26T04:09:08.546Z,66.16
2019-02-26T04:13:15.279Z,66.34
2019-02-26T04:17:27.587Z,66.12
2019-02-26T04:22:27.589Z,66.29
2019-02-26T04:27:00.960Z,66.63
2019-02-26T04:32:09.561Z,67.05
2019-02-26T04:37:27.370Z,66.71
2019-02-26T04:42:27.856Z,67.69
2019-02-26T04:47:12.774Z,67.20
2019-02-26T04:51:19.909Z,67.45
2019-02-26T04:55:29.134Z,67.00
2019-02-26T04:59:37.905Z,67.29
2019-02-26T05:03:44.163Z,67.36
2019-02-26T05:07:51.391Z,67.11
2019-02-26T05:11:58.195Z,66.25
2019-02-26T05:16:05.010Z,66.18
2019-02-26T05:20:13.443Z,66.11
2019-02-26T05:24:23.783Z,65.87
2019-02-26T05:28:37.644Z,66.61
2019-02-26T05:32:43.301Z,66.34
2019-02-26T05:36:51.193Z,66.42
2019-02-26T05:40:58.157Z,66.42
2019-02-26T05:45:06.884Z,67.04
2019-02-26T05:49:17.045Z,66.88
2019-02-26T05:53:23.773Z,67.68
2019-02-26T05:57:32.500Z,66.82
2019-02-26T06:01:39.204Z,66.91
2019-02-26T06:05:48.927Z,66.88
2019-02-26T06:09:56.414Z,66.93
2019-02-26T06:14:07.167Z,66.96
2019-02-26T06:18:12.411Z,66.77
2019-02-26T06:22:21.418Z,67.39
2019-02-26T06:26:30.694Z,67.40
2019-02-26T06:30:36.391Z,66.93
2019-02-26T06:34:43.413Z,67.66
2019-02-26T06:38:52.159Z,69.93
2019-02-26T06:42:58.904Z,67.05
2019-02-26T06:47:09.044Z,66.88
2019-02-26T06:51:15.507Z,66.55
2019-02-26T06:55:22.499Z,66.33
2019-02-26T06:59:34.909Z,66.87
2019-02-26T07:03:41.395Z,65.59
2019-02-26T07:07:48.769Z,65.06
2019-02-26T07:11:55.830Z,65.55
2019-02-26T07:16:05.165Z,66.29
2019-02-26T07:20:11.579Z,66.05
2019-02-26T07:24:20.663Z,66.24
2019-02-26T07:28:27.328Z,65.65
2019-02-26T07:32:35.918Z,65.90
2019-02-26T07:36:43.884Z,64.80
2019-02-26T07:40:54.320Z,64.31
2019-02-26T07:45:02.637Z,64.58
2019-02-26T07:49:09.676Z,64.32
2019-02-26T07:53:17.838Z,63.75
2019-02-26T07:57:27.120Z,63.61
2019-02-26T08:01:35.434Z,63.47
2019-02-26T08:05:42.282Z,62.94
2019-02-26T08:09:49.225Z,62.42
2019-02-26T08:13:56.751Z,60.42
2019-02-26T08:18:05.319Z,59.15
2019-02-26T08:22:12.807Z,57.64
2019-02-26T08:26:21.603Z,55.59
2019-02-26T08:30:29.496Z,54.08
2019-02-26T08:34:39.146Z,52.58
2019-02-26T08:38:46.079Z,52.36
2019-02-26T08:42:53.102Z,51.39
2019-02-26T08:47:00.014Z,50.16
2019-02-26T08:51:10.675Z,48.34
2019-02-26T08:55:19.139Z,47.72
2019-02-26T08:59:25.044Z,46.78
2019-02-26T09:03:40.320Z,47.69
2019-02-26T09:07:42.837Z,45.64
2019-02-26T09:11:52.794Z,44.91
2019-02-26T09:16:01.049Z,43.84
2019-02-26T09:20:14.561Z,43.63
2019-02-26T09:24:20.982Z,44.03
2019-02-26T09:28:29.552Z,44.12
2019-02-26T09:32:38.011Z,44.09
2019-02-26T09:36:45.847Z,43.24
2019-02-26T09:40:54.685Z,44.33
2019-02-26T09:45:02.153Z,43.67
2019-02-26T09:49:12.346Z,44.50
2019-02-26T09:53:17.743Z,42.99
2019-02-26T09:57:26.352Z,43.47
2019-02-26T10:01:35.361Z,43.21
2019-02-26T10:05:41.754Z,44.17
2019-02-26T10:09:48.797Z,43.64
2019-02-26T10:13:55.670Z,44.17
2019-02-26T10:18:06.179Z,43.18
2019-02-26T10:22:13.660Z,42.87
2019-02-26T10:26:19.607Z,43.82
2019-02-26T10:30:29.935Z,43.14
2019-02-26T10:34:35.090Z,43.16
2019-02-26T10:38:41.946Z,42.17
2019-02-26T10:42:48.745Z,41.77
2019-02-26T10:46:55.741Z,41.42
2019-02-26T10:51:06.378Z,40.79
2019-02-26T10:55:15.056Z,40.21
2019-02-26T10:59:23.491Z,39.12
2019-02-26T11:03:30.071Z,39.19
2019-02-26T11:07:38.040Z,38.59
2019-02-26T11:11:45.563Z,37.71
2019-02-26T11:15:53.965Z,37.35
2019-02-26T11:20:03.875Z,37.45
2019-02-26T11:24:11.242Z,36.25
2019-02-26T11:28:18.419Z,37.00
2019-02-26T11:32:27.794Z,37.41
2019-02-26T11:36:36.504Z,36.74
2019-02-26T11:40:42.961Z,36.22
2019-02-26T11:44:50.015Z,35.84
2019-02-26T11:48:57.450Z,36.26
2019-02-26T11:53:04.588Z,34.81
2019-02-26T11:57:13.403Z,34.55
2019-02-26T12:01:20.180Z,33.32
2019-02-26T12:05:31.412Z,33.21
2019-02-26T12:09:38.521Z,31.93
2019-02-26T12:13:45.204Z,31.14
2019-02-26T12:17:54.137Z,31.24
2019-02-26T12:22:03.550Z,29.69
2019-02-26T12:26:10.238Z,29.08
2019-02-26T12:30:20.685Z,29.37
2019-02-26T12:34:28.068Z,28.16
2019-02-26T12:38:36.741Z,27.47
2019-02-26T12:42:44.076Z,27.25
2019-02-26T12:46:53.609Z,27.12
2019-02-26T12:51:01.404Z,27.00
2019-02-26T12:55:10.402Z,25.43
2019-02-26T12:59:17.181Z,27.01
2019-02-26T13:03:24.053Z,27.01
2019-02-26T13:07:31.051Z,25.35
2019-02-26T13:11:37.947Z,25.39
2019-02-26T13:15:44.925Z,25.69
2019-02-26T13:19:58.167Z,25.69
2019-02-26T13:24:11.473Z,25.48
2019-02-26T13:28:09.038Z,24.72
2019-02-26T13:32:18.280Z,25.12
2019-02-26T13:36:25.462Z,24.53
2019-02-26T13:40:38.108Z,24.54
2019-02-26T13:44:41.083Z,25.13
2019-02-26T13:48:47.959Z,24.38
2019-02-26T13:52:54.838Z,24.32
2019-02-26T13:57:01.685Z,25.47
2019-02-26T14:01:08.674Z,24.74
2019-02-26T14:05:15.957Z,24.40
2019-02-26T14:09:23.230Z,25.56
2019-02-26T14:13:30.232Z,24.54
2019-02-26T14:17:38.086Z,25.31
2019-02-26T14:21:45.216Z,25.37
2019-02-26T14:25:52.162Z,26.24
2019-02-26T14:29:59.058Z,26.50
2019-02-26T14:34:06.339Z,26.54
2019-02-26T14:38:13.895Z,28.07
2019-02-26T14:42:21.655Z,28.60
2019-02-26T14:46:28.998Z,29.32
2019-02-26T14:50:35.899Z,29.18
2019-02-26T14:54:42.795Z,29.66
2019-02-26T14:58:50.026Z,30.45
2019-02-26T15:02:57.268Z,31.60
2019-02-26T15:07:04.166Z,32.23
2019-02-26T15:11:11.757Z,32.58
2019-02-26T15:15:19.785Z,32.35
2019-02-26T15:19:26.883Z,32.38
2019-02-26T15:23:34.024Z,32.65
2019-02-26T15:27:41.081Z,33.05
2019-02-26T15:31:47.964Z,33.12
2019-02-26T15:35:55.124Z,33.20
2019-02-26T15:40:02.027Z,33.22
2019-02-26T15:44:11.916Z,33.30
2019-02-26T15:48:19.301Z,33.40
2019-02-26T15:52:26.222Z,33.50
2019-02-26T15:56:33.166Z,33.71
2019-02-26T16:00:41.711Z,33.87
2019-02-26T16:04:48.674Z,33.95
2019-02-26T16:08:55.632Z,34.17
2019-02-26T16:13:05.346Z,34.48
2019-02-26T16:17:12.214Z,34.71
2019-02-26T16:21:19.448Z,37.21
2019-02-26T16:25:26.415Z,35.23
2019-02-26T16:29:33.368Z,35.65
2019-02-26T16:33:40.904Z,35.95
2019-02-26T16:37:48.107Z,37.39
2019-02-26T16:41:55.108Z,37.00
2019-02-26T16:46:02.537Z,39.13
2019-02-26T16:50:13.385Z,38.20
2019-02-26T16:54:20.794Z,37.81
2019-02-26T16:58:28.062Z,38.26
2019-02-26T17:02:35.511Z,38.62
2019-02-26T17:06:42.655Z,39.71
2019-02-26T17:10:50.010Z,39.59
2019-02-26T17:14:57.015Z,41.10
2019-02-26T17:19:04.208Z,42.25
2019-02-26T17:23:13.650Z,41.93
2019-02-26T17:27:19.958Z,41.54
2019-02-26T17:31:28.694Z,41.19
2019-02-26T17:35:35.417Z,41.52
2019-02-26T17:39:42.503Z,42.01
2019-02-26T17:43:49.621Z,41.83
2019-02-26T17:47:57.410Z,42.02
2019-02-26T17:52:06.473Z,42.80
2019-02-26T17:56:13.352Z,43.69
2019-02-26T18:00:21.810Z,43.46
2019-02-26T18:04:29.041Z,43.43
2019-02-26T18:08:35.969Z,43.76
2019-02-26T18:12:43.318Z,44.00
2019-02-26T18:16:50.270Z,43.91
2019-02-26T18:20:57.978Z,44.22
2019-02-26T18:25:09.792Z,44.21
2019-02-26T18:29:16.788Z,44.60
2019-02-26T18:33:24.992Z,44.60
2019-02-26T18:37:31.857Z,44.87
2019-02-26T18:41:38.787Z,45.00
2019-02-26T18:45:48.111Z,45.52
2019-02-26T18:49:56.040Z,45.94
2019-02-26T18:54:05.187Z,46.45
2019-02-26T18:58:13.776Z,46.90
2019-02-26T19:02:21.818Z,47.03
2019-02-26T19:06:32.021Z,47.81
2019-02-26T19:10:39.299Z,48.41
2019-02-26T19:14:46.468Z,48.74
2019-02-26T19:18:53.654Z,49.16
2019-02-26T19:23:05.462Z,49.48
2019-02-26T19:27:13.042Z,49.47
2019-02-26T19:31:20.563Z,51.21
2019-02-26T19:35:28.299Z,49.71
2019-02-26T19:39:35.401Z,49.91
2019-02-26T19:43:45.667Z,49.95
2019-02-26T19:47:55.741Z,51.19
2019-02-26T19:52:02.195Z,49.74
2019-02-26T19:56:09.442Z,48.91
2019-02-26T20:00:19.695Z,50.94
2019-02-26T20:04:25.479Z,52.02
2019-02-26T20:08:32.627Z,52.30
2019-02-26T20:12:39.967Z,51.76
2019-02-26T20:16:47.342Z,52.45
2019-02-26T20:20:54.378Z,52.66
2019-02-26T20:25:04.809Z,52.89
2019-02-26T20:29:12.064Z,53.12
2019-02-26T20:33:19.212Z,53.08
2019-02-26T20:37:26.036Z,53.18
2019-02-26T20:41:33.068Z,51.89
2019-02-26T20:45:40.242Z,53.21
2019-02-26T20:49:47.187Z,54.14
2019-02-26T20:53:54.198Z,49.99
2019-02-26T20:58:01.083Z,49.93
2019-02-26T21:02:08.246Z,47.79
2019-02-26T21:06:15.677Z,47.75
2019-02-26T21:10:23.954Z,46.70
2019-02-26T21:14:31.091Z,47.71
2019-02-26T21:18:39.456Z,45.45
2019-02-26T21:22:46.509Z,48.37
2019-02-26T21:26:53.434Z,46.23
2019-02-26T21:31:00.271Z,45.39
2019-02-26T21:35:07.488Z,45.29
2019-02-26T21:39:14.380Z,43.25
2019-02-26T21:43:21.355Z,45.09
2019-02-26T21:47:28.318Z,46.95
2019-02-26T21:51:35.173Z,48.66
2019-02-26T21:55:44.413Z,49.45
2019-02-26T21:59:50.825Z,49.48
2019-02-26T22:03:58.575Z,52.19
2019-02-26T22:08:06.082Z,52.27
2019-02-26T22:12:13.038Z,53.03
2019-02-26T22:16:20.044Z,52.86
2019-02-26T22:20:35.952Z,50.49
2019-02-26T22:24:39.768Z,49.52
2019-02-26T22:28:43.961Z,49.81
2019-02-26T22:32:50.844Z,50.92
2019-02-26T22:36:57.751Z,52.40
2019-02-26T22:41:04.632Z,53.46
2019-02-26T22:45:12.253Z,54.29
2019-02-26T22:49:20.754Z,54.08
2019-02-26T22:53:27.685Z,54.51
2019-02-26T22:57:34.601Z,54.89
2019-02-26T23:01:46.002Z,53.72
2019-02-26T23:05:53.707Z,53.77
2019-02-26T23:10:00.819Z,54.25
2019-02-26T23:14:09.742Z,54.75
2019-02-26T23:18:17.800Z,54.37
2019-02-26T23:22:25.099Z,53.47
2019-02-26T23:26:32.425Z,52.54
2019-02-26T23:30:40.770Z,52.98
2019-02-26T23:35:05.806Z,53.32
2019-02-26T23:39:15.479Z,53.82
2019-02-26T23:43:24.022Z,53.48
2019-02-26T23:47:34.946Z,53.87
2019-02-26T23:51:39.455Z,53.99
2019-02-26T23:55:47.252Z,53.33
2019-02-26T23:59:54.465Z,53.88
